Time;durP1;ratioP1;P1;durP2;ratioP2;P2;SDS_P1;SDS_P2;PMS_P1;PMS_P2;Temp;Humidity;BMP_temperature;BMP_pressure;BME280_temperature;BME280_humidity;BME280_pressure;Samples;Min_cycle;Max_cycle;Signal;HPM_P1;HPM_P2
2022/08/26 00:01:27;;;;;;;11.95;5.95;;;;;;;;;;4917366;29;20024;-78
2022/08/26 00:03:53;;;;;;;12.20;5.57;;;;;;;;;;4899762;29;20104;-78
2022/08/26 00:06:19;;;;;;;16.55;6.60;;;;;;;;;;4899816;29;20536;-77
2022/08/26 00:08:46;;;;;;;12.50;5.68;;;;;;;;;;4900303;29;20126;-78
2022/08/26 00:11:12;;;;;;;9.02;5.85;;;;;;;;;;4900463;29;20481;-78
2022/08/26 00:13:38;;;;;;;12.32;6.00;;;;;;;;;;4900613;29;20036;-78
2022/08/26 00:16:06;;;;;;;10.77;6.03;;;;;;;;;;4900352;29;20024;-78
2022/08/26 00:18:32;;;;;;;11.23;6.20;;;;;;;;;;4899926;29;20056;-78
2022/08/26 00:20:58;;;;;;;15.30;6.60;;;;;;;;;;4901161;29;20032;-78
2022/08/26 00:23:25;;;;;;;9.43;5.97;;;;;;;;;;4899740;29;20032;-78
2022/08/26 00:25:52;;;;;;;12.27;6.32;;;;;;;;;;4899894;29;20410;-78
2022/08/26 00:28:18;;;;;;;10.65;5.60;;;;;;;;;;4900445;29;20033;-78
2022/08/26 00:30:47;;;;;;;10.52;6.47;;;;;;;;;;4900066;29;20552;-78
2022/08/26 00:33:14;;;;;;;11.02;5.22;;;;;;;;;;4899688;29;20042;-77
2022/08/26 00:35:40;;;;;;;11.50;5.60;;;;;;;;;;4901630;29;20024;-78
2022/08/26 00:38:07;;;;;;;9.18;5.88;;;;;;;;;;4903429;29;20393;-78
2022/08/26 00:40:38;;;;;;;14.38;6.10;;;;;;;;;;4920654;29;20051;-78
2022/08/26 00:43:05;;;;;;;12.57;5.90;;;;;;;;;;4903244;29;20040;-79
2022/08/26 00:45:38;;;;;;;12.85;5.57;;;;;;;;;;4920392;29;20120;-78
2022/08/26 00:48:05;;;;;;;10.40;5.88;;;;;;;;;;4903689;29;20099;-78
2022/08/26 00:50:34;;;;;;;10.27;6.20;;;;;;;;;;4903511;29;20040;-78
2022/08/26 00:53:01;;;;;;;11.77;5.25;;;;;;;;;;4903625;29;20465;-78
2022/08/26 00:55:34;;;;;;;13.50;5.57;;;;;;;;;;4921677;29;20032;-78
2022/08/26 00:58:01;;;;;;;12.60;6.10;;;;;;;;;;4920560;29;20028;-77
2022/08/26 01:00:29;;;;;;;9.95;5.65;;;;;;;;;;4920016;29;20021;-78
2022/08/26 01:02:55;;;;;;;8.73;5.78;;;;;;;;;;4903639;29;20028;-78
2022/08/26 01:05:22;;;;;;;14.80;6.25;;;;;;;;;;4902572;29;20032;-77
2022/08/26 01:07:48;;;;;;;9.77;5.03;;;;;;;;;;4903035;29;20032;-79
2022/08/26 01:10:16;;;;;;;7.43;5.05;;;;;;;;;;4920029;29;20032;-78
2022/08/26 01:12:45;;;;;;;10.63;5.00;;;;;;;;;;4902909;29;20024;-78
2022/08/26 01:15:15;;;;;;;8.65;4.97;;;;;;;;;;4903047;29;20039;-77
2022/08/26 01:17:41;;;;;;;9.82;5.43;;;;;;;;;;4903569;29;20032;-78
2022/08/26 01:20:20;;;;;;;9.60;5.60;;;;;;;;;;4903028;29;20032;-78
2022/08/26 01:23:03;;;;;;;15.40;5.35;;;;;;;;;;4902892;29;20096;-78
2022/08/26 01:25:32;;;;;;;10.63;5.40;;;;;;;;;;4919873;29;20478;-78
2022/08/26 01:27:59;;;;;;;12.50;5.45;;;;;;;;;;4902226;29;20024;-79
2022/08/26 01:30:26;;;;;;;8.77;5.72;;;;;;;;;;4902626;29;20036;-78
2022/08/26 01:32:55;;;;;;;14.30;5.97;;;;;;;;;;4902613;29;20032;-78
2022/08/26 01:35:21;;;;;;;15.15;5.40;;;;;;;;;;4902763;29;20481;-78
2022/08/26 01:37:49;;;;;;;9.82;5.65;;;;;;;;;;4902460;29;20036;-78
2022/08/26 01:40:18;;;;;;;9.05;5.60;;;;;;;;;;4920323;29;20024;-78
2022/08/26 01:42:45;;;;;;;8.50;5.35;;;;;;;;;;4902104;29;21975;-78
2022/08/26 01:45:17;;;;;;;10.48;5.78;;;;;;;;;;4918648;29;20032;-78
2022/08/26 01:47:43;;;;;;;8.00;5.15;;;;;;;;;;4902170;29;20035;-78
2022/08/26 01:50:24;;;;;;;8.90;5.55;;;;;;;;;;4919475;29;20043;-78
2022/08/26 01:52:50;;;;;;;9.85;5.97;;;;;;;;;;4902703;29;20052;-78
2022/08/26 01:55:17;;;;;;;9.32;5.43;;;;;;;;;;4902397;29;20111;-78
2022/08/26 01:57:45;;;;;;;12.45;6.47;;;;;;;;;;4902358;29;20042;-78
2022/08/26 02:00:12;;;;;;;16.88;6.38;;;;;;;;;;4918980;29;20434;-78
2022/08/26 02:02:40;;;;;;;11.43;5.88;;;;;;;;;;4901572;29;20036;-78
2022/08/26 02:05:09;;;;;;;10.48;5.93;;;;;;;;;;4902000;29;20042;-78
2022/08/26 02:07:37;;;;;;;11.27;6.07;;;;;;;;;;4901856;29;20103;-79
2022/08/26 02:10:05;;;;;;;16.33;6.28;;;;;;;;;;4901478;29;20037;-78
2022/08/26 02:12:32;;;;;;;8.35;5.10;;;;;;;;;;4901715;29;20079;-78
2022/08/26 02:15:01;;;;;;;10.52;5.50;;;;;;;;;;4918893;29;20479;-78
2022/08/26 02:17:32;;;;;;;9.40;5.15;;;;;;;;;;4919386;29;20028;-78
2022/08/26 02:19:58;;;;;;;11.95;5.90;;;;;;;;;;4918753;29;20056;-78
2022/08/26 02:22:25;;;;;;;11.10;5.45;;;;;;;;;;4901157;29;20063;-77
2022/08/26 02:24:51;;;;;;;8.18;5.60;;;;;;;;;;4901272;29;20043;-78
2022/08/26 02:27:19;;;;;;;12.07;5.35;;;;;;;;;;4902130;29;20040;-78
2022/08/26 02:29:48;;;;;;;7.70;5.50;;;;;;;;;;4901469;29;20082;-78
2022/08/26 02:32:14;;;;;;;10.00;5.18;;;;;;;;;;4901254;29;20497;-77
2022/08/26 02:34:41;;;;;;;12.02;4.78;;;;;;;;;;4901641;29;20537;-79
2022/08/26 02:37:08;;;;;;;12.05;5.90;;;;;;;;;;4918687;29;20389;-78
2022/08/26 02:39:36;;;;;;;9.15;5.43;;;;;;;;;;4900968;29;20035;-78
2022/08/26 02:42:02;;;;;;;11.77;5.35;;;;;;;;;;4901249;29;20036;-78
2022/08/26 02:44:28;;;;;;;10.43;5.18;;;;;;;;;;4918368;29;20051;-78
2022/08/26 02:46:55;;;;;;;10.18;5.32;;;;;;;;;;4901386;29;20119;-79
2022/08/26 02:49:22;;;;;;;11.07;5.30;;;;;;;;;;4901757;29;20509;-77
2022/08/26 02:51:49;;;;;;;8.93;4.97;;;;;;;;;;4895615;29;20076;-77
2022/08/26 02:54:16;;;;;;;11.98;5.10;;;;;;;;;;4899137;29;20393;-77
2022/08/26 02:56:42;;;;;;;9.52;5.32;;;;;;;;;;4882030;29;20032;-78
2022/08/26 02:59:11;;;;;;;8.75;5.13;;;;;;;;;;4881545;29;20032;-78
2022/08/26 03:01:38;;;;;;;10.25;5.43;;;;;;;;;;4898946;29;20052;-78
2022/08/26 03:04:05;;;;;;;10.63;5.28;;;;;;;;;;4881900;29;20044;-78
2022/08/26 03:06:31;;;;;;;12.15;5.63;;;;;;;;;;4881979;29;20046;-78
2022/08/26 03:08:58;;;;;;;8.45;5.50;;;;;;;;;;4882165;29;20073;-77
2022/08/26 03:11:24;;;;;;;8.88;5.35;;;;;;;;;;4883036;29;20486;-78
2022/08/26 03:13:52;;;;;;;10.32;5.20;;;;;;;;;;4882187;29;20036;-78
2022/08/26 03:16:19;;;;;;;12.20;4.80;;;;;;;;;;4899106;29;20069;-78
2022/08/26 03:18:45;;;;;;;8.60;5.68;;;;;;;;;;4882309;29;20091;-78
2022/08/26 03:21:13;;;;;;;10.57;5.53;;;;;;;;;;4881613;29;20470;-77
2022/08/26 03:23:40;;;;;;;9.95;5.20;;;;;;;;;;4882051;29;20036;-77
2022/08/26 03:26:07;;;;;;;7.95;5.43;;;;;;;;;;4881826;29;20029;-78
2022/08/26 03:28:33;;;;;;;8.65;4.97;;;;;;;;;;4882139;29;20478;-78
2022/08/26 03:30:59;;;;;;;11.48;5.18;;;;;;;;;;4898899;29;20056;-78
2022/08/26 03:33:29;;;;;;;14.20;5.47;;;;;;;;;;4881807;29;20033;-77
2022/08/26 03:35:55;;;;;;;12.02;5.70;;;;;;;;;;4881646;29;20029;-77
2022/08/26 03:38:24;;;;;;;8.95;5.20;;;;;;;;;;4882122;29;20446;-78
2022/08/26 03:40:50;;;;;;;10.02;5.03;;;;;;;;;;4882043;29;20080;-78
2022/08/26 03:43:16;;;;;;;11.20;5.30;;;;;;;;;;4898419;29;20036;-78
2022/08/26 03:45:44;;;;;;;14.40;5.13;;;;;;;;;;4881885;29;20025;-77
2022/08/26 03:48:10;;;;;;;9.43;5.25;;;;;;;;;;4898766;29;20037;-77
2022/08/26 03:50:36;;;;;;;8.25;5.10;;;;;;;;;;4898394;29;20053;-77
2022/08/26 03:53:03;;;;;;;11.13;5.15;;;;;;;;;;4881089;29;20045;-77
2022/08/26 03:55:30;;;;;;;8.50;5.20;;;;;;;;;;4881449;29;20039;-77
2022/08/26 03:57:57;;;;;;;10.50;5.18;;;;;;;;;;4904059;29;20052;-79
2022/08/26 04:00:23;;;;;;;14.05;5.40;;;;;;;;;;4898903;29;20099;-77
2022/08/26 04:02:50;;;;;;;9.68;5.38;;;;;;;;;;4881379;29;20028;-77
2022/08/26 04:05:17;;;;;;;11.75;5.05;;;;;;;;;;4881206;29;20037;-78
2022/08/26 04:07:43;;;;;;;12.38;5.80;;;;;;;;;;4881111;29;20115;-77
2022/08/26 04:10:11;;;;;;;11.50;5.03;;;;;;;;;;4884245;29;20029;-79
2022/08/26 04:12:38;;;;;;;11.63;6.13;;;;;;;;;;4885014;29;20398;-78
2022/08/26 04:15:05;;;;;;;11.32;5.97;;;;;;;;;;4884878;29;20032;-77
2022/08/26 04:17:31;;;;;;;14.82;6.20;;;;;;;;;;4901994;29;20111;-78
2022/08/26 04:19:58;;;;;;;8.77;6.00;;;;;;;;;;4902078;29;20028;-78
2022/08/26 04:22:24;;;;;;;9.65;5.68;;;;;;;;;;4884636;29;20032;-78
2022/08/26 04:24:50;;;;;;;13.27;5.97;;;;;;;;;;4884877;29;20047;-76
2022/08/26 04:27:16;;;;;;;8.68;5.10;;;;;;;;;;4885199;29;20025;-78
2022/08/26 04:29:45;;;;;;;13.82;5.63;;;;;;;;;;4884681;29;20129;-79
2022/08/26 04:32:11;;;;;;;9.23;5.53;;;;;;;;;;4884800;29;20028;-78
2022/08/26 04:34:37;;;;;;;8.32;5.80;;;;;;;;;;4885691;29;20372;-82
2022/08/26 04:37:04;;;;;;;14.38;5.57;;;;;;;;;;4885370;29;20076;-78
2022/08/26 04:39:31;;;;;;;17.02;5.85;;;;;;;;;;4884836;29;20040;-77
2022/08/26 04:41:57;;;;;;;11.77;5.53;;;;;;;;;;4884539;29;20029;-78
2022/08/26 04:44:24;;;;;;;10.48;5.75;;;;;;;;;;4885455;29;20037;-76
2022/08/26 04:46:50;;;;;;;11.25;5.38;;;;;;;;;;4884499;29;20055;-76
2022/08/26 04:49:16;;;;;;;11.57;5.28;;;;;;;;;;4884686;29;20485;-76
2022/08/26 04:51:43;;;;;;;12.00;5.20;;;;;;;;;;4883729;29;20045;-76
2022/08/26 04:54:09;;;;;;;9.10;4.70;;;;;;;;;;4884266;29;20447;-78
2022/08/26 04:56:36;;;;;;;12.45;5.47;;;;;;;;;;4884122;29;20072;-78
2022/08/26 04:59:04;;;;;;;14.27;5.35;;;;;;;;;;4884645;29;20438;-78
2022/08/26 05:01:31;;;;;;;11.27;4.75;;;;;;;;;;4887231;29;20035;-77
2022/08/26 05:03:57;;;;;;;12.60;5.25;;;;;;;;;;4885267;29;20072;-77
2022/08/26 05:06:24;;;;;;;10.82;5.25;;;;;;;;;;4901309;29;20447;-77
2022/08/26 05:08:50;;;;;;;13.10;4.97;;;;;;;;;;4884434;29;20112;-77
2022/08/26 05:11:16;;;;;;;13.93;4.70;;;;;;;;;;4884343;29;20028;-79
2022/08/26 05:13:42;;;;;;;12.93;4.40;;;;;;;;;;4884259;29;20036;-79
2022/08/26 05:16:10;;;;;;;8.88;4.25;;;;;;;;;;4884419;29;20394;-79
2022/08/26 05:18:39;;;;;;;25.88;5.22;;;;;;;;;;4884283;29;20180;-78
2022/08/26 05:21:05;;;;;;;10.15;3.30;;;;;;;;;;4900225;29;20024;-78
2022/08/26 05:23:34;;;;;;;6.40;3.58;;;;;;;;;;4883486;29;20036;-78
2022/08/26 05:26:00;;;;;;;10.30;4.15;;;;;;;;;;4883575;29;20032;-78
2022/08/26 05:28:27;;;;;;;7.22;3.55;;;;;;;;;;4883886;29;20032;-77
2022/08/26 05:30:54;;;;;;;8.65;3.50;;;;;;;;;;4901089;29;20405;-78
2022/08/26 05:33:20;;;;;;;7.47;3.17;;;;;;;;;;4883730;29;20035;-78
2022/08/26 05:35:47;;;;;;;5.70;3.28;;;;;;;;;;4884005;29;20028;-79
2022/08/26 05:38:15;;;;;;;5.32;2.72;;;;;;;;;;4900824;29;20039;-80
2022/08/26 05:40:43;;;;;;;8.25;3.38;;;;;;;;;;4883589;29;20482;-80
2022/08/26 05:43:10;;;;;;;9.68;2.78;;;;;;;;;;4883656;29;20037;-76
2022/08/26 05:45:37;;;;;;;6.18;2.55;;;;;;;;;;4900523;29;20036;-78
2022/08/26 05:48:06;;;;;;;8.18;2.60;;;;;;;;;;4883404;29;20033;-78
2022/08/26 05:50:35;;;;;;;13.60;2.75;;;;;;;;;;4883568;29;20119;-79
2022/08/26 05:53:01;;;;;;;8.65;2.13;;;;;;;;;;4883059;29;20048;-79
2022/08/26 05:55:28;;;;;;;8.07;2.45;;;;;;;;;;4899236;29;20036;-78
2022/08/26 05:57:54;;;;;;;5.28;2.47;;;;;;;;;;4899900;29;20017;-77
2022/08/26 06:00:21;;;;;;;4.53;2.40;;;;;;;;;;4882096;29;20033;-78
2022/08/26 06:02:47;;;;;;;7.45;2.88;;;;;;;;;;4882081;29;20027;-78
2022/08/26 06:05:13;;;;;;;5.65;2.08;;;;;;;;;;4882383;29;20040;-77
2022/08/26 06:10:24;;;;;;;10.63;2.78;;;;;;;;;;4904197;29;20044;-77
2022/08/26 06:12:50;;;;;;;6.50;2.33;;;;;;;;;;4901898;29;20036;-79
2022/08/26 06:15:19;;;;;;;12.30;3.15;;;;;;;;;;4901907;29;20051;-76
2022/08/26 06:17:45;;;;;;;11.02;4.03;;;;;;;;;;4918651;29;20371;-77
2022/08/26 06:20:11;;;;;;;11.65;3.50;;;;;;;;;;4901553;29;20087;-78
2022/08/26 06:25:38;;;;;;;10.18;3.00;;;;;;;;;;4912239;29;20096;-79
2022/08/26 06:28:05;;;;;;;9.13;2.88;;;;;;;;;;4882922;29;20025;-80
2022/08/26 06:30:32;;;;;;;12.48;3.35;;;;;;;;;;4883046;29;20053;-79
2022/08/26 06:32:59;;;;;;;11.73;3.38;;;;;;;;;;4899315;29;20024;-79
2022/08/26 06:35:26;;;;;;;7.63;3.10;;;;;;;;;;4882337;29;20080;-82
2022/08/26 06:37:52;;;;;;;10.48;3.13;;;;;;;;;;4882356;29;20442;-82
2022/08/26 06:40:19;;;;;;;10.32;3.10;;;;;;;;;;4899934;29;20056;-80
2022/08/26 06:42:45;;;;;;;11.18;2.80;;;;;;;;;;4907471;29;20052;-80
2022/08/26 06:45:11;;;;;;;8.85;2.97;;;;;;;;;;4901157;29;20040;-78
2022/08/26 06:47:38;;;;;;;9.75;2.65;;;;;;;;;;4918844;29;20024;-82
2022/08/26 06:50:04;;;;;;;13.45;3.05;;;;;;;;;;4901700;29;20031;-78
2022/08/26 06:52:30;;;;;;;9.88;3.03;;;;;;;;;;4928057;29;20048;-80
2022/08/26 06:54:56;;;;;;;7.95;2.50;;;;;;;;;;4937538;29;20028;-80
2022/08/26 06:57:22;;;;;;;11.63;3.33;;;;;;;;;;4920495;29;20055;-86
2022/08/26 06:59:49;;;;;;;8.10;2.63;;;;;;;;;;4920355;29;20028;-79
2022/08/26 07:02:15;;;;;;;9.07;2.72;;;;;;;;;;4936960;29;20384;-81
2022/08/26 07:04:42;;;;;;;7.25;2.65;;;;;;;;;;4919417;29;20506;-80
2022/08/26 07:07:08;;;;;;;11.65;3.30;;;;;;;;;;4936980;29;20023;-79
2022/08/26 07:09:36;;;;;;;11.20;3.08;;;;;;;;;;4920113;29;20114;-79
2022/08/26 07:12:02;;;;;;;17.30;3.70;;;;;;;;;;4937074;29;20051;-81
2022/08/26 07:14:30;;;;;;;9.13;3.08;;;;;;;;;;4920208;29;20062;-83
2022/08/26 07:17:00;;;;;;;7.60;3.15;;;;;;;;;;4919860;29;20032;-80
2022/08/26 07:19:26;;;;;;;12.80;3.45;;;;;;;;;;4936883;29;20024;-81
2022/08/26 07:21:52;;;;;;;7.80;3.00;;;;;;;;;;4919811;29;20491;-80
2022/08/26 07:24:18;;;;;;;14.90;3.10;;;;;;;;;;4936832;29;20123;-80
2022/08/26 07:26:44;;;;;;;17.50;3.35;;;;;;;;;;4919720;29;20020;-79
2022/08/26 07:29:11;;;;;;;11.70;3.33;;;;;;;;;;4936732;29;20038;-79
2022/08/26 07:31:37;;;;;;;7.78;3.63;;;;;;;;;;4919576;29;20035;-79
2022/08/26 07:34:06;;;;;;;9.77;3.33;;;;;;;;;;4919024;29;20042;-79
2022/08/26 07:36:32;;;;;;;13.98;3.83;;;;;;;;;;4919995;29;20020;-79
2022/08/26 07:38:58;;;;;;;12.23;3.47;;;;;;;;;;4919560;29;20043;-78
2022/08/26 07:41:24;;;;;;;14.85;3.10;;;;;;;;;;4919407;29;20183;-77
2022/08/26 07:43:51;;;;;;;11.68;3.15;;;;;;;;;;4920385;29;20042;-79
2022/08/26 07:46:18;;;;;;;9.98;3.47;;;;;;;;;;4923111;29;20031;-78
2022/08/26 07:48:49;;;;;;;6.72;3.13;;;;;;;;;;4923549;29;20114;-80
2022/08/26 07:51:16;;;;;;;11.43;3.22;;;;;;;;;;4923588;29;20050;-83
2022/08/26 07:53:42;;;;;;;6.88;2.80;;;;;;;;;;4924026;29;20036;-90
2022/08/26 07:56:08;;;;;;;16.63;3.63;;;;;;;;;;4923308;29;20044;-77
2022/08/26 07:58:35;;;;;;;13.02;3.53;;;;;;;;;;4922897;29;20045;-81
2022/08/26 08:01:01;;;;;;;10.75;2.85;;;;;;;;;;4923476;29;20083;-88
2022/08/26 08:03:27;;;;;;;11.73;3.42;;;;;;;;;;4923364;29;20111;-84
2022/08/26 08:05:53;;;;;;;7.03;2.92;;;;;;;;;;4923233;29;20392;-78
2022/08/26 08:08:20;;;;;;;8.98;3.35;;;;;;;;;;4923099;29;20086;-86
2022/08/26 08:10:46;;;;;;;11.82;3.22;;;;;;;;;;4923701;29;20031;-90
2022/08/26 08:13:13;;;;;;;13.15;3.55;;;;;;;;;;4923466;29;20187;-80
2022/08/26 08:15:39;;;;;;;10.68;3.00;;;;;;;;;;4947539;29;20054;-77
2022/08/26 08:18:06;;;;;;;17.83;3.60;;;;;;;;;;4940055;29;20027;-84
2022/08/26 08:20:32;;;;;;;11.25;3.17;;;;;;;;;;4923139;29;20039;-82
2022/08/26 08:23:00;;;;;;;9.55;3.08;;;;;;;;;;4939872;29;20032;-79
2022/08/26 08:25:26;;;;;;;8.27;3.15;;;;;;;;;;4923153;29;20035;-83
2022/08/26 08:27:52;;;;;;;15.40;2.92;;;;;;;;;;4939622;29;20028;-81
2022/08/26 08:30:20;;;;;;;9.20;3.05;;;;;;;;;;4940215;29;20045;-83
2022/08/26 08:32:46;;;;;;;8.70;2.83;;;;;;;;;;4922753;29;20437;-78
2022/08/26 08:35:13;;;;;;;21.50;3.60;;;;;;;;;;4921425;29;20047;-79
2022/08/26 08:37:40;;;;;;;9.05;2.85;;;;;;;;;;4919323;29;20120;-78
2022/08/26 08:40:07;;;;;;;11.05;2.90;;;;;;;;;;4939456;29;20474;-79
2022/08/26 08:42:51;;;;;;;11.90;3.58;;;;;;;;;;4939196;29;20071;-76
2022/08/26 08:45:31;;;;;;;14.52;3.80;;;;;;;;;;4936433;29;20485;-78
2022/08/26 08:47:58;;;;;;;7.30;3.00;;;;;;;;;;4904733;29;20059;-77
2022/08/26 08:50:33;;;;;;;10.63;2.55;;;;;;;;;;4926901;29;20473;-77
2022/08/26 08:53:08;;;;;;;16.33;2.88;;;;;;;;;;4928436;29;20071;-77
2022/08/26 08:55:48;;;;;;;9.35;2.72;;;;;;;;;;4938445;29;20091;-78
2022/08/26 08:58:19;;;;;;;15.40;3.70;;;;;;;;;;4921565;29;20035;-77
2022/08/26 09:00:54;;;;;;;18.48;3.22;;;;;;;;;;4939093;29;20028;-77
2022/08/26 09:03:23;;;;;;;9.32;3.00;;;;;;;;;;4938764;29;20067;-82
2022/08/26 09:05:51;;;;;;;9.55;3.17;;;;;;;;;;4921767;29;20047;-79
2022/08/26 09:08:29;;;;;;;14.10;4.00;;;;;;;;;;4921708;29;20031;-79
2022/08/26 09:10:58;;;;;;;10.57;3.20;;;;;;;;;;4921874;29;20038;-77
2022/08/26 09:13:24;;;;;;;13.00;3.55;;;;;;;;;;4921565;29;20024;-76
2022/08/26 09:15:54;;;;;;;9.23;2.85;;;;;;;;;;4938713;29;20039;-76
2022/08/26 09:18:53;;;;;;;10.50;3.00;;;;;;;;;;4938551;29;20035;-77
2022/08/26 09:21:22;;;;;;;11.10;2.85;;;;;;;;;;4890733;29;20059;-77
2022/08/26 09:23:49;;;;;;;6.93;2.65;;;;;;;;;;4935923;29;20123;-79
2022/08/26 09:26:24;;;;;;;12.50;2.60;;;;;;;;;;4922331;29;20024;-78
2022/08/26 09:29:01;;;;;;;8.15;2.75;;;;;;;;;;4918145;29;20036;-77
2022/08/26 09:31:32;;;;;;;11.25;3.00;;;;;;;;;;4918231;29;20020;-78
2022/08/26 09:34:05;;;;;;;12.65;2.78;;;;;;;;;;4918083;29;20080;-76
2022/08/26 09:36:34;;;;;;;13.57;2.65;;;;;;;;;;4917264;29;20039;-77
2022/08/26 09:39:01;;;;;;;11.15;2.65;;;;;;;;;;4917642;29;20115;-76
2022/08/26 09:41:32;;;;;;;10.45;2.20;;;;;;;;;;4917944;29;20032;-78
2022/08/26 09:44:07;;;;;;;9.82;2.50;;;;;;;;;;4917764;29;20048;-79
2022/08/26 09:46:34;;;;;;;5.88;2.88;;;;;;;;;;4921661;29;20111;-77
2022/08/26 09:49:18;;;;;;;10.98;2.92;;;;;;;;;;4910418;29;20058;-77
2022/08/26 09:51:44;;;;;;;7.93;2.80;;;;;;;;;;4929093;29;20398;-76
2022/08/26 09:54:23;;;;;;;9.32;2.45;;;;;;;;;;4918510;29;20031;-76
2022/08/26 09:56:49;;;;;;;4.22;2.30;;;;;;;;;;4918106;29;20080;-79
2022/08/26 09:59:28;;;;;;;11.48;2.35;;;;;;;;;;4919738;29;20035;-80
2022/08/26 10:01:54;;;;;;;7.38;2.88;;;;;;;;;;4919991;29;20098;-77
2022/08/26 10:04:25;;;;;;;7.55;2.55;;;;;;;;;;4933184;29;20127;-81
2022/08/26 10:06:57;;;;;;;6.85;2.47;;;;;;;;;;4930794;29;20035;-79
2022/08/26 10:09:24;;;;;;;7.28;2.60;;;;;;;;;;4920362;29;20059;-84
2022/08/26 10:11:55;;;;;;;13.18;2.83;;;;;;;;;;4920517;29;20054;-78
2022/08/26 10:14:23;;;;;;;8.07;3.08;;;;;;;;;;4919075;29;20039;-81
2022/08/26 10:17:02;;;;;;;6.80;2.42;;;;;;;;;;4931023;29;20079;-78
2022/08/26 10:19:32;;;;;;;12.70;2.58;;;;;;;;;;4921062;29;20039;-77
2022/08/26 10:22:03;;;;;;;10.68;2.80;;;;;;;;;;4929361;29;20095;-77
2022/08/26 10:24:33;;;;;;;8.85;2.58;;;;;;;;;;4907317;29;20040;-75
2022/08/26 10:27:10;;;;;;;12.77;2.38;;;;;;;;;;4924585;29;20024;-81
2022/08/26 10:29:41;;;;;;;8.85;2.53;;;;;;;;;;4910986;29;20501;-81
2022/08/26 10:32:19;;;;;;;7.68;2.65;;;;;;;;;;4926167;29;20106;-76
2022/08/26 10:34:45;;;;;;;8.13;2.50;;;;;;;;;;4911160;29;20522;-82
2022/08/26 10:37:17;;;;;;;9.27;2.53;;;;;;;;;;4920408;29;20036;-85
2022/08/26 10:39:46;;;;;;;11.82;1.98;;;;;;;;;;4920228;29;20062;-78
2022/08/26 10:42:21;;;;;;;7.40;2.33;;;;;;;;;;4920813;29;20028;-80
2022/08/26 10:44:49;;;;;;;8.95;2.35;;;;;;;;;;4920609;29;20024;-79
2022/08/26 10:47:20;;;;;;;5.18;2.20;;;;;;;;;;4917370;29;20032;-80
2022/08/26 10:49:48;;;;;;;13.10;2.80;;;;;;;;;;4920311;29;20171;-81
2022/08/26 10:52:24;;;;;;;10.25;1.90;;;;;;;;;;4920398;29;20058;-81
2022/08/26 10:55:09;;;;;;;4.95;1.85;;;;;;;;;;4920024;29;20042;-77
2022/08/26 10:57:53;;;;;;;9.07;2.42;;;;;;;;;;4920605;29;20363;-80
2022/08/26 11:03:23;;;;;;;7.47;2.45;;;;;;;;;;4907361;29;20414;-79
2022/08/26 11:06:08;;;;;;;9.25;2.10;;;;;;;;;;4920030;29;20038;-79
2022/08/26 11:08:34;;;;;;;8.15;2.30;;;;;;;;;;4919752;29;20047;-81
2022/08/26 11:11:01;;;;;;;6.60;1.95;;;;;;;;;;4936932;29;20103;-80
2022/08/26 11:13:46;;;;;;;8.70;2.05;;;;;;;;;;4937299;29;20024;-78
2022/08/26 11:16:31;;;;;;;5.85;2.20;;;;;;;;;;4920384;29;20050;-85
2022/08/26 11:18:58;;;;;;;9.35;2.20;;;;;;;;;;4936676;29;20024;-85
2022/08/26 11:21:43;;;;;;;7.75;2.20;;;;;;;;;;4920728;29;20032;-81
2022/08/26 11:24:09;;;;;;;8.20;1.98;;;;;;;;;;4920968;29;20068;-84
2022/08/26 11:26:36;;;;;;;9.73;2.25;;;;;;;;;;4941223;29;20051;-88
2022/08/26 11:29:03;;;;;;;7.20;2.03;;;;;;;;;;4920460;29;20068;-88
2022/08/26 11:31:29;;;;;;;6.55;1.98;;;;;;;;;;4920647;29;20437;-88
2022/08/26 11:34:05;;;;;;;10.23;2.28;;;;;;;;;;4936892;29;20032;-84
2022/08/26 11:36:47;;;;;;;6.10;2.20;;;;;;;;;;4922164;29;20028;-88
2022/08/26 11:39:14;;;;;;;;;;;;;;;;;;4910391;29;20031;-93
2022/08/26 11:41:50;;;;;;;7.60;2.47;;;;;;;;;;4904044;29;19982;-81
2022/08/26 11:44:25;;;;;;;11.38;3.08;;;;;;;;;;4897534;29;20031;-80
2022/08/26 11:46:56;;;;;;;12.13;3.22;;;;;;;;;;4922454;29;20071;-80
2022/08/26 11:49:23;;;;;;;8.73;2.63;;;;;;;;;;4903781;29;20057;-79
2022/08/26 11:51:50;;;;;;;12.75;2.83;;;;;;;;;;4925034;29;20124;-78
2022/08/26 11:54:20;;;;;;;15.40;2.90;;;;;;;;;;4937122;29;20477;-79
2022/08/26 11:56:48;;;;;;;10.98;2.95;;;;;;;;;;4936327;29;20031;-78
2022/08/26 11:59:18;;;;;;;11.25;2.67;;;;;;;;;;4911824;29;20481;-77
2022/08/26 12:01:48;;;;;;;7.70;2.55;;;;;;;;;;4927046;29;20058;-78
2022/08/26 12:04:24;;;;;;;13.02;2.65;;;;;;;;;;4923180;29;20036;-86
2022/08/26 12:06:53;;;;;;;9.60;2.42;;;;;;;;;;4917902;29;20103;-88
2022/08/26 12:09:27;;;;;;;11.30;2.80;;;;;;;;;;4918188;29;20024;-76
2022/08/26 12:12:08;;;;;;;8.73;2.50;;;;;;;;;;4919728;29;20398;-88
2022/08/26 12:14:35;;;;;;;10.13;2.50;;;;;;;;;;4922868;29;20425;-79
2022/08/26 12:17:26;;;;;;;7.55;2.22;;;;;;;;;;4900388;29;20040;-82
2022/08/26 12:19:52;;;;;;;7.38;2.67;;;;;;;;;;4916951;29;20043;-80
2022/08/26 12:22:26;;;;;;;9.30;1.98;;;;;;;;;;4917950;29;20039;-90
2022/08/26 12:25:00;;;;;;;15.90;2.25;;;;;;;;;;4917122;29;20039;-84
2022/08/26 12:27:30;;;;;;;12.63;2.10;;;;;;;;;;4917623;29;20024;-80
2022/08/26 12:30:09;;;;;;;4.47;1.92;;;;;;;;;;4918274;29;20412;-87
2022/08/26 12:32:39;;;;;;;9.70;3.08;;;;;;;;;;4919958;29;20103;-81
2022/08/26 12:35:10;;;;;;;8.68;2.35;;;;;;;;;;4920715;29;20044;-75
2022/08/26 12:37:38;;;;;;;9.50;3.05;;;;;;;;;;4919566;29;20032;-78
2022/08/26 12:40:23;;;;;;;7.88;2.08;;;;;;;;;;4920618;29;20039;-81
2022/08/26 12:42:49;;;;;;;14.40;2.50;;;;;;;;;;4918890;29;20128;-79
2022/08/26 12:45:26;;;;;;;7.65;2.50;;;;;;;;;;4919327;29;20438;-79
2022/08/26 12:47:54;;;;;;;9.07;2.35;;;;;;;;;;4921619;29;20119;-81
2022/08/26 12:50:22;;;;;;;16.10;2.85;;;;;;;;;;4912292;29;20370;-79
2022/08/26 12:53:00;;;;;;;11.27;2.88;;;;;;;;;;4920113;29;20059;-82
2022/08/26 12:55:34;;;;;;;7.07;2.22;;;;;;;;;;4920145;29;20036;-83
2022/08/26 12:58:19;;;;;;;10.85;2.47;;;;;;;;;;4903168;29;20067;-79
2022/08/26 13:00:47;;;;;;;10.35;2.95;;;;;;;;;;4904241;29;20119;-78
2022/08/26 13:03:28;;;;;;;13.95;2.28;;;;;;;;;;4903626;29;20449;-83
2022/08/26 13:06:07;;;;;;;18.38;2.70;;;;;;;;;;4903006;29;20433;-84
2022/08/26 13:08:34;;;;;;;13.90;2.25;;;;;;;;;;4920734;29;20028;-83
2022/08/26 13:11:01;;;;;;;11.38;2.33;;;;;;;;;;4908289;29;20052;-80
2022/08/26 13:13:28;;;;;;;8.52;2.25;;;;;;;;;;4903012;29;20422;-82
2022/08/26 13:15:54;;;;;;;10.60;2.53;;;;;;;;;;4903336;29;20389;-78
2022/08/26 13:18:21;;;;;;;11.63;2.40;;;;;;;;;;4903539;29;20032;-79
2022/08/26 13:20:47;;;;;;;14.50;3.05;;;;;;;;;;4902669;29;20120;-78
2022/08/26 13:23:13;;;;;;;11.05;2.30;;;;;;;;;;4903080;29;20024;-85
2022/08/26 13:25:40;;;;;;;12.50;2.35;;;;;;;;;;4902637;29;20085;-87
2022/08/26 13:28:06;;;;;;;9.13;2.30;;;;;;;;;;4902615;29;20024;-76
2022/08/26 13:30:32;;;;;;;14.98;2.88;;;;;;;;;;4919641;29;20032;-78
2022/08/26 13:32:59;;;;;;;10.65;2.50;;;;;;;;;;4902631;29;20024;-77
2022/08/26 13:35:26;;;;;;;13.00;2.58;;;;;;;;;;4919987;29;20035;-80
2022/08/26 13:37:52;;;;;;;12.27;2.78;;;;;;;;;;4902335;29;20048;-76
2022/08/26 13:40:18;;;;;;;11.98;2.92;;;;;;;;;;4902535;29;20118;-83
2022/08/26 13:42:44;;;;;;;13.75;2.25;;;;;;;;;;4918997;29;20024;-83
2022/08/26 13:45:11;;;;;;;8.52;2.08;;;;;;;;;;4902911;29;20201;-83
2022/08/26 13:47:37;;;;;;;14.68;2.88;;;;;;;;;;4902466;29;20386;-81
2022/08/26 13:50:04;;;;;;;11.63;2.60;;;;;;;;;;4901935;29;20171;-74
2022/08/26 13:52:30;;;;;;;5.53;2.20;;;;;;;;;;4899153;29;20052;-80
2022/08/26 13:54:59;;;;;;;16.23;2.10;;;;;;;;;;4926405;29;20131;-81
2022/08/26 13:57:26;;;;;;;10.27;2.20;;;;;;;;;;4935499;29;20055;-81
2022/08/26 13:59:55;;;;;;;9.82;2.35;;;;;;;;;;4920731;29;20038;-81
2022/08/26 14:02:21;;;;;;;12.68;2.70;;;;;;;;;;4920541;29;20055;-85
2022/08/26 14:04:48;;;;;;;7.03;2.17;;;;;;;;;;4925514;29;20062;-85
2022/08/26 14:07:14;;;;;;;16.83;2.60;;;;;;;;;;4920843;29;20027;-80
2022/08/26 14:09:40;;;;;;;11.55;2.60;;;;;;;;;;4920619;29;20031;-82
2022/08/26 14:12:06;;;;;;;11.88;2.78;;;;;;;;;;4921080;29;20039;-82
2022/08/26 14:14:32;;;;;;;8.05;2.50;;;;;;;;;;4920970;29;20095;-82
2022/08/26 14:16:58;;;;;;;12.80;2.55;;;;;;;;;;4921333;29;20027;-85
2022/08/26 14:19:25;;;;;;;9.98;2.42;;;;;;;;;;4921239;29;20039;-86
2022/08/26 14:21:51;;;;;;;5.15;2.08;;;;;;;;;;4920805;29;20032;-86
2022/08/26 14:24:17;;;;;;;12.95;3.05;;;;;;;;;;4921902;29;20118;-82
2022/08/26 14:26:47;;;;;;;13.63;2.67;;;;;;;;;;4922270;29;20026;-86
2022/08/26 14:29:13;;;;;;;8.18;2.38;;;;;;;;;;4920724;29;20053;-86
2022/08/26 14:31:39;;;;;;;9.93;2.50;;;;;;;;;;4920659;29;20547;-79
2022/08/26 14:34:08;;;;;;;5.95;2.80;;;;;;;;;;4939502;29;20374;-81
2022/08/26 14:36:35;;;;;;;9.00;2.20;;;;;;;;;;4920285;29;20020;-80
2022/08/26 14:39:06;;;;;;;10.85;2.50;;;;;;;;;;4937790;29;20039;-81
2022/08/26 14:41:34;;;;;;;8.07;2.78;;;;;;;;;;4920501;29;20057;-82
2022/08/26 14:44:02;;;;;;;10.65;2.00;;;;;;;;;;4921206;29;20111;-86
2022/08/26 14:46:29;;;;;;;13.05;2.08;;;;;;;;;;4920759;29;20114;-82
2022/08/26 14:48:56;;;;;;;8.30;2.50;;;;;;;;;;4920826;29;20061;-82
2022/08/26 14:51:23;;;;;;;9.82;2.30;;;;;;;;;;4920431;29;20059;-84
2022/08/26 14:56:36;;;;;;;7.97;1.65;;;;;;;;;;4937726;29;20039;-81